createdAt,value
2018-11-13T00:02:46.013Z,9.99
2018-11-13T00:12:47.327Z,10.01
2018-11-13T00:22:46.018Z,10.00
2018-11-13T00:32:45.968Z,9.96
2018-11-13T00:42:45.957Z,9.93
2018-11-13T00:52:46.029Z,9.88
2018-11-13T01:02:46.048Z,9.90
2018-11-13T01:12:45.825Z,9.93
2018-11-13T01:22:45.963Z,9.82
2018-11-13T01:32:45.976Z,9.81
2018-11-13T01:42:45.986Z,9.77
2018-11-13T01:52:46.033Z,9.82
2018-11-13T02:02:49.664Z,9.89
2018-11-13T02:12:46.888Z,9.93
2018-11-13T02:22:45.976Z,9.94
2018-11-13T02:32:47.003Z,9.98
2018-11-13T02:42:46.239Z,10.06
2018-11-13T02:52:45.991Z,10.11
2018-11-13T03:02:54.563Z,10.03
2018-11-13T03:12:46.012Z,10.25
2018-11-13T03:22:45.994Z,10.28
2018-11-13T03:32:45.960Z,10.23
2018-11-13T03:42:46.001Z,10.24
2018-11-13T03:52:45.972Z,10.34
2018-11-13T04:02:45.939Z,10.39
2018-11-13T04:12:46.008Z,10.40
2018-11-13T04:22:45.955Z,10.36
2018-11-13T04:32:45.944Z,10.33
2018-11-13T04:42:45.964Z,10.38
2018-11-13T04:52:45.928Z,10.37
2018-11-13T05:02:46.005Z,10.36
2018-11-13T05:12:46.052Z,10.38
2018-11-13T05:22:46.553Z,10.38
2018-11-13T05:32:45.950Z,10.31
2018-11-13T05:42:45.941Z,10.25
2018-11-13T05:52:46.076Z,10.16
2018-11-13T06:02:46.029Z,10.03
2018-11-13T06:12:46.122Z,10.13
2018-11-13T06:22:46.002Z,10.10
2018-11-13T06:32:45.988Z,10.20
2018-11-13T06:42:45.970Z,10.40
2018-11-13T06:52:45.927Z,10.47
2018-11-13T07:02:45.978Z,10.52
2018-11-13T07:12:45.995Z,10.60
2018-11-13T07:22:45.961Z,10.65
2018-11-13T07:32:45.925Z,10.73
2018-11-13T07:42:46.085Z,10.73
2018-11-13T07:52:46.859Z,10.78
2018-11-13T08:02:45.857Z,10.73
2018-11-13T08:12:46.115Z,10.76
2018-11-13T08:22:46.008Z,11.15
2018-11-13T08:32:46.054Z,11.55
2018-11-13T08:42:45.967Z,11.27
2018-11-13T08:52:46.138Z,11.14
2018-11-13T09:02:46.114Z,11.92
2018-11-13T09:12:45.937Z,11.59
2018-11-13T09:22:46.138Z,11.99
2018-11-13T09:32:45.945Z,11.81
2018-11-13T09:42:46.082Z,11.64
2018-11-13T09:52:45.914Z,11.59
2018-11-13T10:02:46.873Z,11.74
2018-11-13T10:12:46.056Z,12.80
2018-11-13T10:22:46.146Z,12.86
2018-11-13T10:32:45.988Z,13.31
2018-11-13T10:42:45.995Z,12.75
2018-11-13T10:52:46.058Z,12.49
2018-11-13T11:02:46.025Z,13.19
2018-11-13T11:12:46.027Z,12.92
2018-11-13T11:22:46.318Z,12.48
2018-11-13T11:32:45.976Z,12.29
2018-11-13T11:42:47.082Z,12.13
2018-11-13T11:52:46.094Z,12.23
2018-11-13T12:02:46.015Z,12.56
2018-11-13T12:12:46.057Z,13.25
2018-11-13T12:22:46.060Z,13.38
2018-11-13T12:32:45.943Z,13.61
2018-11-13T12:42:46.917Z,13.63
2018-11-13T12:52:46.118Z,13.16
2018-11-13T13:02:46.034Z,13.12
2018-11-13T13:12:46.099Z,12.74
2018-11-13T13:22:46.086Z,13.09
2018-11-13T13:32:46.069Z,13.47
2018-11-13T13:42:46.059Z,13.11
2018-11-13T13:52:46.223Z,12.78
2018-11-13T14:02:46.061Z,13.00
2018-11-13T14:12:45.987Z,12.40
2018-11-13T14:22:46.114Z,12.28
2018-11-13T14:32:46.098Z,13.04
2018-11-13T14:42:46.214Z,12.65
2018-11-13T14:52:46.041Z,12.46
2018-11-13T15:02:46.041Z,11.87
2018-11-13T15:12:46.071Z,11.81
2018-11-13T15:22:46.100Z,11.87
2018-11-13T15:32:46.201Z,11.69
2018-11-13T15:42:46.107Z,11.58
2018-11-13T15:52:46.040Z,11.36
2018-11-13T16:02:46.043Z,11.39
2018-11-13T16:12:46.029Z,11.39
2018-11-13T16:22:46.852Z,11.22
2018-11-13T16:32:45.922Z,11.03
2018-11-13T16:42:46.013Z,10.81
2018-11-13T16:52:45.971Z,10.67
2018-11-13T17:02:45.973Z,10.46
2018-11-13T17:12:45.984Z,10.35
2018-11-13T17:22:46.209Z,10.35
2018-11-13T17:32:46.057Z,10.30
2018-11-13T17:42:46.185Z,10.29
2018-11-13T17:52:46.095Z,10.31
2018-11-13T18:02:46.011Z,10.32
2018-11-13T18:12:46.825Z,10.27
2018-11-13T18:22:46.110Z,10.16
2018-11-13T18:32:45.959Z,10.05
2018-11-13T18:42:45.942Z,10.06
2018-11-13T18:52:46.003Z,10.10
2018-11-13T19:02:45.903Z,10.00
2018-11-13T19:12:46.171Z,9.87
2018-11-13T19:22:45.922Z,9.77
2018-11-13T19:32:45.984Z,9.55
2018-11-13T19:42:46.750Z,9.51
2018-11-13T19:52:46.591Z,9.61
2018-11-13T20:02:45.934Z,9.60
2018-11-13T20:12:46.017Z,9.66
2018-11-13T20:22:45.981Z,9.61
2018-11-13T20:32:46.338Z,9.61
2018-11-13T20:42:45.963Z,9.52
2018-11-13T20:52:45.944Z,9.49
2018-11-13T21:02:45.982Z,9.45
2018-11-13T21:12:45.951Z,9.54
2018-11-13T21:22:45.980Z,9.50
2018-11-13T21:32:45.977Z,9.32
2018-11-13T21:42:45.887Z,9.30
2018-11-13T21:52:45.981Z,9.22
2018-11-13T22:02:46.286Z,9.10
2018-11-13T22:12:47.545Z,8.99
2018-11-13T22:22:45.917Z,8.79
2018-11-13T22:32:46.395Z,8.63
2018-11-13T22:42:47.367Z,8.53
2018-11-13T22:52:45.944Z,8.53
2018-11-13T23:02:45.952Z,8.59
2018-11-13T23:12:46.090Z,8.61
2018-11-13T23:22:46.190Z,8.63
2018-11-13T23:32:49.492Z,8.68
2018-11-13T23:42:48.882Z,8.71
2018-11-13T23:52:51.458Z,8.74
